FYKT

Keetmanshoop Airport

Keetmanshoop, Namibia
TAF AMD FYKT 181855Z 1818/1918 07010KT CAVOK
Issued Valid From Valid To
Jul-18 @ 18:55 UTC
(3 hours ago)
Jul-18 @ 18:00 UTC
(4 hours ago)
Jul-19 @ 18:00 UTC
(in 20 hours)
Jul-18 @ 18:00 to Jul-19 @ 18:00
TAF AMD FYKT 181855Z 1818/1918 07010KT CAVOK
Wind Visibility Clouds Conditions
70° at 10 knots 10,000+ meters
  • No significant clouds
TAF AMD FYKT 181855Z 1818/1918 07010KT CAVOK
Issued Jul-18 @ 18:55 UTC
(3 hours ago)
Valid From Jul-18 @ 18:00 UTC
(4 hours ago)
Valid To Jul-19 @ 18:00 UTC
(in 20 hours)
Jul-18 @ 18:00 - Jul-19 @ 18:00
Wind Visibility
70° at 10 knots 10,000+ meters
Clouds
  • No significant clouds
Conditions